• Join FlightAware (Why Join?)
  • Login
  • US Flag 
02:22AM EST


 

Airport Tracker/Info


-or-


 

Live Flight TrackerFlight Track Log ✈ N21234 ✈ 20-Oct-2013 ✈ 20GA - KHQZ

Flight Track Log - Related Links

Times and Time Zones

All times are in EDT time to prevent confusion due to time zone crossing. See the N21234 flight status page for this flight to view local times or setup timezone preferences in your user account.

Time Position Orientation Groundspeed Altitude Reporting Facility
EDT Latitude Longitude Course Direction KTS MPH feet Rate Location/Type
01:29PM 33.7500 -84.9667 273° West 135 155 3,000  Level Atlanta TRACON
01:30PM 33.7528 -85.0308 273° West 148 170 3,200 650 Climbing Atlanta Center
01:31PM 33.7397 -85.0731 250° West 152 175 4,300 950 Climbing Atlanta Center
01:32PM 33.7333 -85.1153 260° West 142 163 5,100 1,850 Climbing Atlanta Center
01:33PM 33.7328 -85.1628 269° West 142 163 8,000 750 Climbing Atlanta Center
01:34PM 33.7281 -85.2103 263° West 142 163 6,600 -350 Descending Atlanta Center
01:35PM 33.7278 -85.2553 270° West 142 163 7,300 700 Climbing Atlanta Center
01:36PM 33.7253 -85.2950 266° West 142 163 8,000 350 Climbing Atlanta Center
01:37PM 33.7267 -85.3500 272° West 147 169 8,000 -50 Level Atlanta Center
01:38PM 33.7219 -85.4050 264° West 166 191 7,900 -50 Descending Atlanta Center
01:39PM 33.7214 -85.4625 269° West 171 197 7,900  Level Atlanta Center
01:40PM 33.7186 -85.5197 267° West 176 203 7,900  Level Atlanta Center
01:41PM 33.7178 -85.5772 269° West 176 203 7,900  Level Atlanta Center
01:42PM 33.7128 -85.6422 265° West 176 203 7,900  Level Atlanta Center
01:43PM 33.7100 -85.6994 267° West 176 203 7,900  Level Atlanta Center
01:44PM 33.7114 -85.7569 272° West 176 203 7,900 50 Level Atlanta Center
01:45PM 33.7000 -85.8117 256° West 182 209 8,000 50 Climbing Atlanta Center
01:46PM 33.6992 -85.8717 269° West 176 203 8,000  Level Atlanta Center
01:47PM 33.6964 -85.9264 267° West 176 203 8,000  Level Atlanta Center
01:48PM 33.6933 -85.9839 266° West 176 203 8,000  Level Atlanta Center
01:49PM 33.6906 -86.0261 265° West 171 197 8,000  Level Atlanta Center
01:49PM 33.6903 -86.0411 269° West 176 203 8,000  Level Atlanta Center
01:50PM 33.6872 -86.0983 266° West 176 203 8,000  Level Atlanta Center
01:50PM 33.6872 -86.1058 270° West 172 198 8,000  Level Atlanta Center
01:51PM 33.6864 -86.1558 269° West 176 203 8,000  Level Atlanta Center
01:51PM 33.6842 -86.1633 250° West 171 197 8,000  Level Atlanta Center
01:52PM 33.6833 -86.2108 269° West 176 203 8,000  Level Atlanta Center
01:52PM 33.6811 -86.2156 241° Southwest 171 197 8,000  Level Atlanta Center
01:53PM 33.6822 -86.2706 271° West 176 203 8,000  Level Atlanta Center
01:53PM 33.6778 -86.2806 242° Southwest 172 198 8,000  Level Atlanta Center
01:54PM 33.6792 -86.3278 272° West 176 203 8,000  Level Atlanta Center
01:54PM 33.6747 -86.3428 250° West 172 198 8,000  Level Atlanta Center
01:55PM 33.6761 -86.3803 273° West 172 198 8,000  Level Atlanta Center
01:55PM 33.6758 -86.3828 262° West 176 203 8,000  Level Atlanta Center
01:56PM 33.6706 -86.4425 264° West 173 199 8,000  Level Atlanta Center
01:56PM 33.6728 -86.4400 43° Northeast 176 203 8,000  Level Atlanta Center
01:57PM 33.6694 -86.5000 266° West 176 203 8,000  Level Atlanta Center
01:57PM 33.6672 -86.5097 255° West 174 200 8,000  Level Atlanta Center
01:58PM 33.6664 -86.5547 269° West 176 203 8,000  Level Atlanta Center
01:58PM 33.6661 -86.5672 268° West 174 200 8,000  Level Atlanta Center
01:59PM 33.6583 -86.6344 262° West 175 201 8,000  Level Atlanta Center
02:00PM 33.6572 -86.6917 269° West 175 201 8,000  Level Atlanta Center
02:01PM 33.6539 -86.7489 266° West 176 203 8,000  Level Atlanta Center
02:02PM 33.6503 -86.8139 266° West 176 203 8,000  Level Atlanta Center
02:03PM 33.6489 -86.8736 268° West 175 201 8,000  Level Atlanta Center
02:04PM 33.6433 -86.9308 263° West 177 204 8,000  Level Atlanta Center
02:05PM 33.6419 -86.9881 268° West 176 203 8,000  Level Atlanta Center
02:06PM 33.6386 -87.0481 266° West 175 201 8,000  Level Atlanta Center
02:07PM 33.6350 -87.1053 266° West 176 203 8,000  Level Atlanta Center
02:08PM 33.6339 -87.1550 268° West 176 203 8,000  Level Atlanta Center
02:09PM 33.6281 -87.2122 263° West 175 201 8,000  Level Atlanta Center
02:10PM 33.6267 -87.2669 268° West 174 200 8,000  Level Atlanta Center
02:11PM 33.6208 -87.3367 264° West 175 201 8,000  Level Atlanta Center
02:12PM 33.6169 -87.3989 266° West 176 203 8,000 -41 Level Atlanta Center
02:14PM 33.6153 -87.4761 269° West 176 203 7,900 -42 Descending Memphis Center
02:15PM 33.6114 -87.5333 265° West 176 203 7,900  Level Memphis Center
02:16PM 33.6078 -87.5917 266° West 175 201 7,900  Level Memphis Center
02:17PM 33.5822 -87.6786 251° West 176 203 7,900  Level Memphis Center
02:17PM 33.6053 -87.6506 45° Northeast 176 203 7,900  Level Memphis Center
02:18PM 33.5797 -87.7361 250° West 177 204 7,900  Level Memphis Center
02:18PM 33.6017 -87.7097 45° Northeast 176 203 7,900  Level Memphis Center
02:19PM 33.5772 -87.7961 251° West 177 204 7,900  Level Memphis Center
02:19PM 33.5975 -87.7683 49° Northeast 177 204 7,900  Level Memphis Center
02:20PM 33.5747 -87.8536 252° West 177 204 7,900  Level Memphis Center
02:20PM 33.5922 -87.8397 33° Northeast 178 205 7,900  Level Memphis Center
02:21PM 33.5722 -87.9161 253° West 178 205 7,900  Level Memphis Center
02:21PM 33.5892 -87.8997 39° Northeast 179 206 7,900  Level Memphis Center
02:22PM 33.5861 -87.9581 266° West 178 205 7,900  Level Memphis Center
02:23PM 33.5672 -88.0361 254° West 179 206 7,900  Level Memphis Center
02:23PM 33.5822 -88.0175 46° Northeast 179 206 7,900  Level Memphis Center
02:24PM 33.5644 -88.0936 254° West 179 206 7,900  Level Memphis Center
02:24PM 33.5781 -88.0769 46° Northeast 179 206 7,900  Level Memphis Center
02:25PM 33.5619 -88.1586 257° West 180 207 7,900  Level Memphis Center
02:25PM 33.5742 -88.1358 57° Northeast 178 205 7,900  Level Memphis Center
02:26PM 33.5614 -88.2158 259° West 178 205 7,900  Level Memphis Center
02:26PM 33.5706 -88.2078 36° Northeast 179 206 7,900  Level Memphis Center
02:27PM 33.5586 -88.2758 258° West 177 204 7,900  Level Memphis Center
02:27PM 33.5667 -88.2661 45° Northeast 177 204 7,900  Level Memphis Center
02:28PM 33.5581 -88.3333 261° West 179 206 7,900  Level Memphis Center
02:28PM 33.5642 -88.3250 49° Northeast 178 205 7,900  Level Memphis Center
02:29PM 33.5531 -88.3933 259° West 180 207 7,900  Level Memphis Center
02:29PM 33.5586 -88.3853 50° Northeast 180 207 7,900  Level Memphis Center
02:30PM 33.5506 -88.4533 262° West 181 208 7,900  Level Memphis Center
02:30PM 33.5547 -88.4458 56° Northeast 182 209 7,900  Level Memphis Center
02:31PM 33.5478 -88.5181 263° West 181 208 7,900  Level Memphis Center
02:31PM 33.5517 -88.5056 70° East 181 208 7,900  Level Memphis Center
02:32PM 33.5469 -88.5781 266° West 180 207 7,900 97 Level Memphis Center
02:32PM 33.5469 -88.5783 270° West 182 209 8,000  Climbing Memphis Center
02:33PM 33.5442 -88.6381 267° West 180 207 7,900  Descending Memphis Center
02:33PM 33.5422 -88.6328 114° Southeast 179 206 8,000  Climbing Memphis Center
02:34PM 33.5411 -88.6953 269° West 177 204 7,900  Descending Memphis Center
02:35PM 33.5386 -88.6958 190° South 178 205 8,000  Climbing Memphis Center
02:35PM 33.5383 -88.7578 270° West 176 203 7,900  Descending Memphis Center
02:36PM 33.5350 -88.7489 114° Southeast 176 203 8,000  Climbing Memphis Center
02:36PM 33.5353 -88.8153 270° West 176 203 7,900  Descending Memphis Center
02:37PM 33.5303 -88.8172 198° South 174 200 8,000  Climbing Memphis Center
02:37PM 33.5325 -88.8775 273° West 175 201 7,900  Descending Memphis Center
02:38PM 33.5253 -88.8767 175° South 178 205 8,000 68 Climbing Memphis Center
02:39PM 33.5206 -88.9336 264° West 176 203 8,000  Level Memphis Center
02:40PM 33.5172 -88.9917 266° West 176 203 8,000  Level Memphis Center
02:41PM 33.5131 -89.0497 265° West 175 201 8,000  Level Memphis Center
02:42PM 33.5089 -89.1189 266° West 176 203 8,000  Level Memphis Center
02:43PM 33.5042 -89.1753 264° West 173 199 8,000  Level Memphis Center
02:44PM 33.5000 -89.2336 265° West 175 201 8,000  Level Memphis Center
02:45PM 33.4961 -89.2894 265° West 173 199 8,000  Level Memphis Center
02:46PM 33.4911 -89.3456 264° West 172 198 8,000  Level Memphis Center
02:47PM 33.4869 -89.4133 266° West 171 197 8,000  Level Memphis Center
02:48PM 33.4822 -89.4697 264° West 171 197 8,000  Level Memphis Center
02:49PM 33.4781 -89.5258 265° West 171 197 8,000  Level Memphis Center
02:50PM 33.4733 -89.5814 264° West 170 196 8,000  Level Memphis Center
02:51PM 33.4683 -89.6375 264° West 170 196 8,000  Level Memphis Center
02:52PM 33.4647 -89.7044 266° West 170 196 8,000  Level Memphis Center
02:53PM 33.4603 -89.7608 265° West 171 197 8,000  Level Memphis Center
02:54PM 33.4561 -89.8172 265° West 171 197 8,000  Level Memphis Center
02:55PM 33.4514 -89.8736 264° West 172 198 8,000  Level Memphis Center
02:56PM 33.4464 -89.9411 265° West 171 197 8,000  Level Memphis Center
02:57PM 33.4419 -89.9969 265° West 171 197 8,000  Level Memphis Center
02:58PM 33.4378 -90.0519 265° West 169 194 8,000  Level Memphis Center
02:59PM 33.4325 -90.1092 264° West 171 197 8,000  Level Memphis Center
03:00PM 33.4286 -90.1644 265° West 171 197 8,000  Level Memphis Center
03:01PM 33.4228 -90.2311 264° West 170 196 8,000 -48 Level Memphis Center
03:02PM 33.4183 -90.2861 264° West 170 196 7,900 -48 Descending Memphis Center
03:03PM 33.4139 -90.3414 265° West 168 193 7,900  Level Memphis Center
03:04PM 33.4092 -90.3978 264° West 170 196 7,900  Level Memphis Center
03:06PM 33.4039 -90.4514 263° West 166 191 7,900  Level Memphis Center
03:07PM 33.3994 -90.5186 265° West 170 196 7,900  Level Memphis Center
03:08PM 33.3947 -90.5728 264° West 167 192 7,900  Level Memphis Center
03:09PM 33.3906 -90.6264 265° West 164 189 7,900  Level Memphis Center
03:10PM 33.3856 -90.6806 264° West 164 189 7,900  Level Memphis Center
03:11PM 33.3800 -90.7350 263° West 167 192 7,900  Level Memphis Center
03:12PM 33.3744 -90.8003 264° West 166 191 7,900  Level Memphis Center
03:13PM 33.3697 -90.8544 264° West 166 191 7,900  Level Memphis Center
03:14PM 33.3653 -90.9083 264° West 165 190 7,900  Level Memphis Center
03:15PM 33.3600 -90.9628 263° West 165 190 7,900  Level Memphis Center
03:16PM 33.3561 -91.0167 265° West 165 190 7,900  Level Memphis Center
03:17PM 33.3508 -91.0825 265° West 165 190 7,900  Level Memphis Center
03:18PM 33.3450 -91.1386 263° West 168 193 7,900  Level Memphis Center
03:19PM 33.3394 -91.1936 263° West 168 193 7,900  Level Memphis Center
03:20PM 33.3347 -91.2475 264° West 167 192 7,900  Level Memphis Center
03:21PM 33.3311 -91.3036 266° West 168 193 7,900  Level Memphis Center
03:22PM 33.3244 -91.3683 263° West 167 192 7,900  Level Memphis Center
03:23PM 33.3192 -91.4217 263° West 165 190 7,900  Level Memphis Center
03:24PM 33.3153 -91.4772 265° West 166 191 7,900  Level Memphis Center
03:25PM 33.3103 -91.5300 264° West 164 189 7,900  Level Memphis Center
03:26PM 33.3061 -91.5847 265° West 165 190 7,900  Level Memphis Center
03:27PM 33.2997 -91.6475 263° West 162 186 7,900  Level Memphis Center
03:28PM 33.2933 -91.7017 262° West 163 188 7,900  Level Memphis Center
03:29PM 33.2900 -91.7589 266° West 162 186 7,900  Level Memphis Center
03:30PM 33.2844 -91.8131 263° West 164 189 7,900  Level Memphis Center
03:31PM 33.2806 -91.8672 265° West 164 189 7,900  Level Memphis Center
03:32PM 33.2742 -91.9275 263° West 166 191 7,900  Level Memphis Center
03:33PM 33.2681 -91.9819 262° West 166 191 7,900  Level Memphis Center
03:34PM 33.2619 -92.0322 262° West 168 193 7,900 48 Level Memphis Center
03:36PM 33.2586 -92.0961 266° West 163 188 8,000 48 Climbing Memphis Center
03:37PM 33.2506 -92.1508 260° West 164 189 8,000  Level Memphis Center
03:38PM 33.2475 -92.2042 266° West 164 189 8,000  Level Memphis Center
03:39PM 33.2422 -92.2575 263° West 163 188 8,000  Level Memphis Center
03:40PM 33.2375 -92.3103 264° West 161 185 8,000  Level Memphis Center
03:41PM 33.2311 -92.3647 262° West 162 186 8,000  Level Memphis Center
03:42PM 33.2286 -92.4097 266° West 162 186 8,000  Level Fort Worth Center
03:43PM 33.2244 -92.4647 265° West 162 186 8,000  Level Fort Worth Center
03:44PM 33.2203 -92.5194 265° West 162 186 8,000  Level Fort Worth Center
03:45PM 33.2119 -92.5719 259° West 162 186 8,000  Level Fort Worth Center
03:46PM 33.2056 -92.6269 262° West 162 186 8,000  Level Fort Worth Center
03:47PM 33.2014 -92.6794 265° West 162 186 8,000  Level Fort Worth Center
03:48PM 33.1972 -92.7342 265° West 162 186 8,000  Level Fort Worth Center
03:49PM 33.1886 -92.7842 258° West 162 186 8,000  Level Fort Worth Center
03:50PM 33.1842 -92.8367 264° West 162 186 8,000  Level Fort Worth Center
03:51PM 33.1800 -92.8914 265° West 162 186 8,000  Level Fort Worth Center
03:52PM 33.1714 -92.9439 259° West 162 186 8,000  Level Fort Worth Center
03:53PM 33.1692 -92.9961 267° West 162 186 8,000  Level Fort Worth Center
03:54PM 33.1647 -93.0486 264° West 162 186 8,000  Level Fort Worth Center
03:55PM 33.1581 -93.0986 261° West 162 186 8,000  Level Fort Worth Center
03:56PM 33.1514 -93.1483 261° West 162 186 8,000  Level Fort Worth Center
03:57PM 33.1469 -93.2008 264° West 162 186 8,000  Level Fort Worth Center
03:58PM 33.1403 -93.2506 261° West 162 186 8,000  Level Fort Worth Center
03:59PM 33.1358 -93.3053 264° West 162 186 8,000  Level Fort Worth Center
04:00PM 33.1292 -93.3553 261° West 162 186 8,000  Level Fort Worth Center
04:01PM 33.1244 -93.4078 264° West 162 186 8,000  Level Fort Worth Center
04:02PM 33.1178 -93.4575 261° West 162 186 8,000  Level Fort Worth Center
04:03PM 33.1131 -93.5097 264° West 162 186 8,000  Level Fort Worth Center
04:04PM 33.1083 -93.5597 264° West 162 186 8,000  Level Fort Worth Center
04:05PM 33.1017 -93.6119 261° West 162 186 8,000  Level Fort Worth Center
04:06PM 33.0947 -93.6619 261° West 162 186 8,000  Level Fort Worth Center
04:07PM 33.0900 -93.7142 264° West 162 186 8,000  Level Fort Worth Center
04:08PM 33.0833 -93.7664 261° West 162 186 8,000  Level Fort Worth Center
04:09PM 33.0783 -93.8186 263° West 162 186 8,000 -150 Level Fort Worth Center
04:10PM 33.0717 -93.8711 261° West 162 186 7,700 -300 Descending Fort Worth Center
04:11PM 33.0650 -93.9308 262° West 162 186 7,400 -300 Descending Fort Worth Center
04:12PM 33.0581 -93.9881 262° West 162 186 7,100 -300 Descending Fort Worth Center
04:13PM 33.0514 -94.0428 262° West 167 192 6,800 -300 Descending Fort Worth Center
04:14PM 33.0464 -94.1000 264° West 172 198 6,500 -300 Descending Fort Worth Center
04:15PM 33.0397 -94.1547 262° West 177 204 6,200 -250 Descending Fort Worth Center
04:16PM 33.0328 -94.2119 262° West 182 209 6,000 -100 Descending Fort Worth Center
04:17PM 33.0258 -94.2667 261° West 177 204 6,000  Level Fort Worth Center
04:18PM 33.0186 -94.3192 261° West 177 204 6,000  Level Fort Worth Center
04:19PM 33.0158 -94.3736 267° West 171 197 6,000  Level Fort Worth Center
04:20PM 33.0089 -94.4258 261° West 171 197 6,000  Level Fort Worth Center
04:21PM 33.0017 -94.4806 261° West 171 197 6,000  Level Fort Worth Center
04:22PM 32.9944 -94.5328 261° West 171 197 6,000  Level Fort Worth Center
04:23PM 32.9894 -94.5825 263° West 161 185 6,000  Level Fort Worth Center
04:24PM 32.9844 -94.6347 264° West 161 185 6,000  Level Fort Worth Center
04:25PM 32.9772 -94.6894 261° West 161 185 6,000 50 Level Fort Worth Center
04:26PM 32.9722 -94.7442 264° West 161 185 6,100 50 Climbing Fort Worth Center
04:27PM 32.9647 -94.7939 260° West 161 185 6,100  Level Fort Worth Center
04:28PM 32.9597 -94.8483 264° West 161 185 6,100  Level Fort Worth Center
04:29PM 32.9522 -94.8958 259° West 161 185 6,100  Level Fort Worth Center
04:30PM 32.9450 -94.9478 261° West 161 185 6,100  Level Fort Worth Center
04:31PM 32.9417 -95.0000 266° West 161 185 6,100  Level Fort Worth Center
04:32PM 32.9325 -95.0547 259° West 161 185 6,100  Level Fort Worth Center
04:33PM 32.9269 -95.1042 262° West 161 185 6,100  Level Fort Worth Center
04:34PM 32.9197 -95.1564 261° West 161 185 6,100  Level Fort Worth Center
04:35PM 32.9142 -95.2086 263° West 161 185 6,100  Level Fort Worth Center
04:36PM 32.9069 -95.2608 261° West 161 185 6,100 -50 Level Fort Worth Center
04:37PM 32.9014 -95.3128 263° West 161 185 6,000 -50 Descending Fort Worth Center
04:38PM 32.8939 -95.3650 260° West 168 193 6,000  Level Fort Worth Center
04:39PM 32.8906 -95.4169 266° West 168 193 6,000 -50 Level Fort Worth Center
04:40PM 32.8811 -95.4692 258° West 163 188 5,900  Descending Fort Worth Center
04:41PM 32.8797 -95.5211 268° West 163 188 6,000 50 Climbing Fort Worth Center
04:42PM 32.8700 -95.5733 258° West 163 188 6,000  Level Fort Worth Center
04:43PM 32.8647 -95.6328 264° West 163 188 6,000 -50 Level Fort Worth Center
04:44PM 32.8589 -95.6747 261° West 163 188 5,900  Descending Fort Worth Center
04:45PM 32.8514 -95.7344 262° West 163 188 6,000 50 Climbing Fort Worth Center
04:46PM 32.8458 -95.7789 262° West 163 188 6,000 -50 Level Fort Worth Center
04:47PM 32.8381 -95.8358 261° West 163 188 5,900  Descending Fort Worth Center
04:48PM 32.8325 -95.8831 262° West 163 188 6,000 50 Climbing Fort Worth Center
04:49PM 32.8247 -95.9400 261° West 163 188 6,000 -150 Level Fort Worth Center
04:50PM 32.8192 -95.9869 262° West 163 188 5,700 -400 Descending Fort Worth Center
04:51PM 32.8114 -96.0464 261° West 163 188 5,200 -400 Descending Fort Worth Center
04:52PM 32.8056 -96.0936 262° West 163 188 4,900 -350 Descending Fort Worth Center
04:53PM 32.7978 -96.1531 261° West 163 188 4,500 -200 Descending Fort Worth Center
04:54PM 32.7919 -96.1975 261° West 158 182 4,500  Level Fort Worth Center
04:55PM 32.7864 -96.2544 263° West 158 182 4,500  Level Fort Worth Center
04:56PM 32.7702 -96.3056 249° West  Level FlightAware Approximate
05:03PM 32.7333 -96.5167 253° West  Level FlightAware Approximate
05:04PM 32.7470 -96.5304 253° West  Level Estimated
05:05PM 32.7470 -96.5304 253° West  Level Estimated
05:06PM 32.7470 -96.5304 253° West  Level Estimated